createdAt,value
2023-01-08T00:00:48.123Z,1.00
2023-01-08T00:03:15.448Z,0.90
2023-01-08T00:05:43.266Z,1.00
2023-01-08T00:08:10.912Z,0.90
2023-01-08T00:10:38.563Z,0.90
2023-01-08T00:13:06.723Z,0.90
2023-01-08T00:15:34.652Z,1.00
2023-01-08T00:18:01.821Z,0.90
2023-01-08T00:20:29.198Z,0.90
2023-01-08T00:22:55.979Z,0.90
2023-01-08T00:25:22.776Z,0.90
2023-01-08T00:27:49.643Z,0.90
2023-01-08T00:30:16.535Z,0.90
2023-01-08T00:32:43.354Z,0.80
2023-01-08T00:35:10.282Z,0.80
2023-01-08T00:37:37.037Z,0.70
2023-01-08T00:40:04.279Z,0.70
2023-01-08T00:42:31.059Z,0.60
2023-01-08T00:44:57.919Z,0.60
2023-01-08T00:47:24.752Z,0.60
2023-01-08T00:49:51.691Z,0.50
2023-01-08T00:52:18.543Z,0.50
2023-01-08T00:54:45.417Z,0.50
2023-01-08T00:57:12.223Z,0.60
2023-01-08T00:59:39.037Z,0.60
2023-01-08T01:02:05.888Z,0.60
2023-01-08T01:04:32.941Z,0.60
2023-01-08T01:07:02.610Z,0.60
2023-01-08T01:09:29.953Z,0.60
2023-01-08T01:11:56.945Z,0.60
2023-01-08T01:14:24.161Z,0.60
2023-01-08T01:16:51.237Z,0.70
2023-01-08T01:19:18.452Z,0.70
2023-01-08T01:21:45.327Z,0.70
2023-01-08T01:24:13.291Z,0.70
2023-01-08T01:26:40.853Z,0.70
2023-01-08T01:29:07.799Z,0.70
2023-01-08T01:31:34.717Z,0.70
2023-01-08T01:36:43.559Z,0.80
2023-01-08T01:39:10.707Z,0.70
2023-01-08T01:41:43.933Z,0.70
2023-01-08T01:44:40.255Z,0.70
2023-01-08T01:47:21.723Z,0.60
2023-01-08T01:50:22.689Z,0.50
2023-01-08T01:53:05.462Z,0.50
2023-01-08T01:55:33.815Z,0.50
2023-01-08T01:58:15.208Z,0.40
2023-01-08T02:00:43.241Z,0.40
2023-01-08T02:03:11.669Z,0.40
2023-01-08T02:05:49.998Z,0.30
2023-01-08T02:08:36.417Z,0.30
2023-01-08T02:11:34.150Z,0.30
2023-01-08T02:14:05.477Z,0.20
2023-01-08T02:16:50.486Z,0.20
2023-01-08T02:19:29.169Z,0.20
2023-01-08T02:22:28.203Z,0.20
2023-01-08T02:25:12.963Z,0.20
2023-01-08T02:27:44.075Z,0.20
2023-01-08T02:30:11.540Z,0.20
2023-01-08T02:32:40.489Z,0.10
2023-01-08T02:35:08.487Z,0.10
2023-01-08T02:37:36.728Z,0.10
2023-01-08T02:40:06.571Z,0.10
2023-01-08T02:42:39.459Z,0.10
2023-01-08T02:45:14.347Z,0.20
2023-01-08T02:47:50.171Z,0.20
2023-01-08T02:50:39.180Z,0.20
2023-01-08T02:53:15.187Z,0.20
2023-01-08T02:55:45.158Z,0.20
2023-01-08T02:58:13.073Z,0.20
2023-01-08T03:00:42.303Z,0.20
2023-01-08T03:03:14.549Z,0.20
2023-01-08T03:05:42.044Z,0.20
2023-01-08T03:08:09.651Z,0.20
2023-01-08T03:10:39.553Z,0.20
2023-01-08T03:13:31.318Z,0.20
2023-01-08T03:16:01.088Z,0.30
2023-01-08T03:18:35.850Z,0.30
2023-01-08T03:21:05.515Z,0.30
2023-01-08T03:23:34.941Z,0.20
2023-01-08T03:26:03.525Z,0.20
2023-01-08T03:28:36.401Z,0.10
2023-01-08T03:31:03.307Z,0.10
2023-01-08T03:33:31.921Z,0.00
2023-01-08T03:36:01.204Z,0.00
2023-01-08T03:38:33.710Z,0.00
2023-01-08T03:41:07.315Z,0.00
2023-01-08T03:43:34.249Z,0.00
2023-01-08T03:46:04.029Z,0.00
2023-01-08T03:48:33.949Z,0.00
2023-01-08T03:51:00.903Z,0.00
2023-01-08T03:53:28.472Z,0.00
2023-01-08T03:55:56.672Z,0.10
2023-01-08T03:58:23.428Z,0.00
2023-01-08T04:00:50.204Z,0.10
2023-01-08T04:03:17.014Z,0.20
2023-01-08T04:05:43.805Z,0.10
2023-01-08T04:08:10.571Z,0.20
2023-01-08T04:10:37.370Z,0.20
2023-01-08T04:13:04.162Z,0.20
2023-01-08T04:15:34.674Z,0.20
2023-01-08T04:18:01.512Z,0.30
2023-01-08T04:20:28.269Z,0.30
2023-01-08T04:22:55.023Z,0.30
2023-01-08T04:25:21.784Z,0.30
2023-01-08T04:27:48.559Z,0.30
2023-01-08T04:30:15.420Z,0.20
2023-01-08T04:32:42.219Z,0.20
2023-01-08T04:35:09.479Z,0.20
2023-01-08T04:37:36.227Z,0.20
2023-01-08T04:40:03.321Z,0.20
2023-01-08T04:42:30.079Z,0.10
2023-01-08T04:44:56.864Z,0.10
2023-01-08T04:47:23.598Z,0.10
2023-01-08T04:49:50.368Z,0.00
2023-01-08T04:52:17.140Z,0.00
2023-01-08T04:54:43.976Z,-0.10
2023-01-08T04:57:11.089Z,-0.10
2023-01-08T04:59:37.826Z,-0.10
2023-01-08T05:02:04.699Z,-0.10
2023-01-08T05:04:31.617Z,-0.20
2023-01-08T05:06:58.353Z,-0.20
2023-01-08T05:09:25.246Z,-0.20
2023-01-08T05:11:52.019Z,-0.20
2023-01-08T05:14:18.845Z,-0.20
2023-01-08T05:16:45.606Z,-0.20
2023-01-08T05:19:12.415Z,-0.20
2023-01-08T05:21:39.222Z,-0.20
2023-01-08T05:24:06.391Z,-0.20
2023-01-08T05:26:34.216Z,-0.20
2023-01-08T05:29:01.312Z,-0.20
2023-01-08T05:31:28.145Z,-0.20
2023-01-08T05:33:57.213Z,-0.20
2023-01-08T05:36:24.096Z,-0.20
2023-01-08T05:38:50.941Z,-0.20
2023-01-08T05:41:17.787Z,-0.20
2023-01-08T05:43:44.576Z,-0.20
2023-01-08T05:46:11.422Z,-0.20
2023-01-08T05:48:38.692Z,-0.20
2023-01-08T05:51:05.906Z,-0.20
2023-01-08T05:53:33.100Z,-0.20
2023-01-08T05:56:07.700Z,-0.20
2023-01-08T05:58:35.619Z,-0.10
2023-01-08T06:01:06.264Z,-0.10
2023-01-08T06:03:33.136Z,-0.10
2023-01-08T06:06:05.911Z,-0.10
2023-01-08T06:08:34.604Z,-0.10
2023-01-08T06:11:02.880Z,0.00
2023-01-08T06:13:29.942Z,0.00
2023-01-08T06:16:00.229Z,0.00
2023-01-08T06:18:28.588Z,0.10
2023-01-08T06:20:55.540Z,0.10
2023-01-08T06:23:22.306Z,0.10
2023-01-08T06:25:56.925Z,0.20
2023-01-08T06:28:24.285Z,0.30
2023-01-08T06:30:51.599Z,0.40
2023-01-08T06:33:21.205Z,0.50
2023-01-08T06:35:48.560Z,0.50
2023-01-08T06:38:15.788Z,0.60
2023-01-08T06:40:42.581Z,0.60
2023-01-08T06:43:09.388Z,0.70
2023-01-08T06:45:36.207Z,0.70
2023-01-08T06:48:05.186Z,0.70
2023-01-08T06:50:33.307Z,0.80
2023-01-08T06:53:00.100Z,0.80
2023-01-08T06:55:26.997Z,0.80
2023-01-08T06:57:58.459Z,0.80
2023-01-08T07:00:26.372Z,0.90
2023-01-08T07:02:54.543Z,0.90
2023-01-08T07:05:21.842Z,1.00
2023-01-08T07:07:48.893Z,1.00
2023-01-08T07:10:16.259Z,1.00
2023-01-08T07:12:43.802Z,1.00
2023-01-08T07:15:10.882Z,1.00
2023-01-08T07:17:37.795Z,1.00
2023-01-08T07:20:05.162Z,1.10
2023-01-08T07:22:32.057Z,1.10
2023-01-08T07:24:59.518Z,1.10
2023-01-08T07:27:26.479Z,1.10
2023-01-08T07:29:55.932Z,1.20
2023-01-08T07:32:22.937Z,1.20
2023-01-08T07:34:49.917Z,1.20
2023-01-08T07:37:16.735Z,1.30
2023-01-08T07:39:43.627Z,1.30
2023-01-08T07:42:10.374Z,1.30
2023-01-08T07:44:37.330Z,1.40
2023-01-08T07:47:04.101Z,1.50
2023-01-08T07:49:30.915Z,1.50
2023-01-08T07:51:57.666Z,1.50
2023-01-08T07:54:24.449Z,1.50
2023-01-08T07:56:53.737Z,1.50
2023-01-08T07:59:20.563Z,1.50
2023-01-08T08:01:47.478Z,1.60
2023-01-08T08:04:17.502Z,1.60
2023-01-08T08:06:44.268Z,1.60
2023-01-08T08:09:11.053Z,1.60
2023-01-08T08:11:38.545Z,1.60
2023-01-08T08:14:05.549Z,1.60
2023-01-08T08:16:32.370Z,1.60
2023-01-08T08:18:59.741Z,1.60
2023-01-08T08:21:26.879Z,1.70
2023-01-08T08:23:53.750Z,1.70
2023-01-08T08:26:20.553Z,1.70
2023-01-08T08:28:47.416Z,1.80
2023-01-08T08:31:14.288Z,1.80
2023-01-08T08:33:41.204Z,1.90
2023-01-08T08:36:08.708Z,1.90
2023-01-08T08:38:37.914Z,2.00
2023-01-08T08:41:04.818Z,2.10
2023-01-08T08:48:33.855Z,2.30
2023-01-08T08:51:00.678Z,2.50
2023-01-08T08:53:27.823Z,2.50
2023-01-08T08:55:54.694Z,2.60
2023-01-08T08:58:21.479Z,2.70
2023-01-08T09:00:48.313Z,2.70
2023-01-08T09:03:16.050Z,2.80
2023-01-08T09:05:43.523Z,2.80
2023-01-08T09:08:11.370Z,2.90
2023-01-08T09:10:41.520Z,3.00
2023-01-08T09:13:08.942Z,3.10
2023-01-08T09:15:36.925Z,3.20
2023-01-08T09:18:04.438Z,3.30
2023-01-08T09:20:31.472Z,3.40
2023-01-08T09:22:59.532Z,3.50
2023-01-08T09:25:26.891Z,3.60
2023-01-08T09:28:05.887Z,3.70
2023-01-08T09:30:33.185Z,3.80
2023-01-08T09:33:02.738Z,3.90
2023-01-08T09:35:30.523Z,4.00
2023-01-08T09:37:57.583Z,4.20
2023-01-08T09:40:48.401Z,4.30
2023-01-08T09:43:19.857Z,4.40
2023-01-08T09:45:51.762Z,4.50
2023-01-08T09:48:20.395Z,4.60
2023-01-08T09:50:48.536Z,4.80
2023-01-08T09:53:17.800Z,4.90
2023-01-08T09:56:08.691Z,5.00
2023-01-08T09:58:59.979Z,5.10
2023-01-08T10:01:35.011Z,5.20
2023-01-08T10:04:07.335Z,5.30
2023-01-08T10:06:34.186Z,5.40
2023-01-08T10:09:01.078Z,5.50
2023-01-08T10:11:38.033Z,5.50
2023-01-08T10:14:11.043Z,5.60
2023-01-08T10:16:38.620Z,5.60
2023-01-08T10:19:05.714Z,5.60
2023-01-08T10:21:39.661Z,5.60
2023-01-08T10:24:07.161Z,5.60
2023-01-08T10:26:36.613Z,5.60
2023-01-08T10:29:07.648Z,5.60
2023-01-08T10:31:38.941Z,5.60
2023-01-08T10:34:10.917Z,5.50
2023-01-08T10:36:42.402Z,5.50
2023-01-08T10:39:23.453Z,5.50
2023-01-08T10:41:53.779Z,5.40
2023-01-08T10:44:22.675Z,5.40
2023-01-08T10:46:53.756Z,5.40
2023-01-08T10:49:39.296Z,5.40
2023-01-08T10:52:06.288Z,5.40
2023-01-08T10:54:36.854Z,5.50
2023-01-08T10:57:19.782Z,5.50
2023-01-08T10:59:46.563Z,5.60
2023-01-08T11:02:28.532Z,5.70
2023-01-08T11:04:55.416Z,5.80
2023-01-08T11:07:23.767Z,5.80
2023-01-08T11:09:52.212Z,6.00
2023-01-08T11:12:40.619Z,6.00
2023-01-08T11:15:30.752Z,6.10
2023-01-08T11:18:16.327Z,6.20
2023-01-08T11:20:43.164Z,6.30
2023-01-08T11:23:27.711Z,6.40
2023-01-08T11:26:10.268Z,6.50
2023-01-08T11:28:50.809Z,6.60
2023-01-08T11:31:49.653Z,6.70
2023-01-08T11:34:18.726Z,6.90
2023-01-08T11:36:59.219Z,7.00
2023-01-08T11:39:26.103Z,7.10
2023-01-08T11:42:07.960Z,7.10
2023-01-08T11:45:12.075Z,7.20
2023-01-08T11:47:44.796Z,7.20
2023-01-08T11:50:43.178Z,7.20
2023-01-08T11:53:43.466Z,7.20
2023-01-08T11:56:31.906Z,7.20
2023-01-08T11:59:16.723Z,7.20
2023-01-08T12:01:54.556Z,7.10
2023-01-08T12:04:44.894Z,7.10
2023-01-08T12:07:23.587Z,7.10
2023-01-08T12:10:10.957Z,7.10
2023-01-08T12:12:46.681Z,7.10
2023-01-08T12:15:26.582Z,7.10
2023-01-08T12:18:35.914Z,7.10
2023-01-08T12:21:05.787Z,7.10
2023-01-08T12:23:38.761Z,7.10
2023-01-08T12:26:39.688Z,7.10
2023-01-08T12:29:25.134Z,7.10
2023-01-08T12:32:02.567Z,7.10
2023-01-08T12:35:12.643Z,7.10
2023-01-08T12:37:50.014Z,7.20
2023-01-08T12:40:23.911Z,7.20
2023-01-08T12:43:00.598Z,7.20
2023-01-08T12:45:35.320Z,7.30
2023-01-08T12:48:08.912Z,7.30
2023-01-08T12:50:49.451Z,7.30
2023-01-08T12:53:32.595Z,7.40
2023-01-08T12:56:14.368Z,7.40
2023-01-08T12:58:57.437Z,7.40
2023-01-08T13:01:30.097Z,7.40
2023-01-08T13:03:59.059Z,7.40
2023-01-08T13:06:26.382Z,7.30
2023-01-08T13:08:56.439Z,7.30
2023-01-08T13:11:34.896Z,7.30
2023-01-08T13:14:11.601Z,7.40
2023-01-08T13:16:40.898Z,7.40
2023-01-08T13:19:26.479Z,7.40
2023-01-08T13:21:55.923Z,7.40
2023-01-08T13:24:33.267Z,7.30
2023-01-08T13:27:28.524Z,7.30
2023-01-08T13:29:58.134Z,7.30
2023-01-08T13:32:38.200Z,7.30
2023-01-08T13:35:17.472Z,7.30
2023-01-08T13:37:52.756Z,7.30
2023-01-08T13:40:53.090Z,7.20
2023-01-08T13:43:21.658Z,7.20
2023-01-08T13:46:15.436Z,7.20
2023-01-08T13:49:00.828Z,7.20
2023-01-08T13:51:35.129Z,7.20
2023-01-08T13:54:27.574Z,7.20
2023-01-08T13:57:03.880Z,7.20
2023-01-08T13:59:34.088Z,7.20
2023-01-08T14:02:01.762Z,7.20
2023-01-08T14:04:28.841Z,7.20
2023-01-08T14:07:13.475Z,7.20
2023-01-08T14:09:40.341Z,7.20
2023-01-08T14:12:14.317Z,7.10
2023-01-08T14:14:47.186Z,7.10
2023-01-08T14:17:16.889Z,7.10
2023-01-08T14:19:44.958Z,7.00
2023-01-08T14:22:19.563Z,7.00
2023-01-08T14:24:52.190Z,7.00
2023-01-08T14:27:28.674Z,7.00
2023-01-08T14:29:56.085Z,7.00
2023-01-08T14:32:29.441Z,7.00
2023-01-08T14:34:58.644Z,6.90
2023-01-08T14:37:25.729Z,6.90
2023-01-08T14:39:54.747Z,6.90
2023-01-08T14:42:42.409Z,6.90
2023-01-08T14:47:46.324Z,6.90
2023-01-08T14:50:28.140Z,6.80
2023-01-08T14:53:08.344Z,6.80
2023-01-08T14:55:41.905Z,6.80
2023-01-08T14:58:29.657Z,6.80
2023-01-08T15:01:02.970Z,6.80
2023-01-08T15:03:31.386Z,6.70
2023-01-08T15:05:58.544Z,6.70
2023-01-08T15:08:32.359Z,6.70
2023-01-08T15:11:19.454Z,6.70
2023-01-08T15:13:47.795Z,6.60
2023-01-08T15:16:33.350Z,6.60
2023-01-08T15:19:02.721Z,6.60
2023-01-08T15:21:29.732Z,6.60
2023-01-08T15:23:58.379Z,6.50
2023-01-08T15:26:25.397Z,6.50
2023-01-08T15:29:05.213Z,6.50
2023-01-08T15:31:41.451Z,6.40
2023-01-08T15:34:08.910Z,6.40
2023-01-08T15:36:35.784Z,6.30
2023-01-08T15:39:02.938Z,6.30
2023-01-08T15:41:56.027Z,6.30
2023-01-08T15:44:23.789Z,6.20
2023-01-08T15:46:52.563Z,6.20
2023-01-08T15:49:19.477Z,6.10
2023-01-08T15:51:51.917Z,6.10
2023-01-08T15:54:21.444Z,6.10
2023-01-08T15:56:48.230Z,6.10
2023-01-08T15:59:15.067Z,6.00
2023-01-08T16:01:41.946Z,6.00
2023-01-08T16:04:08.891Z,6.00
2023-01-08T16:06:36.326Z,5.90
2023-01-08T16:09:03.793Z,5.90
2023-01-08T16:11:30.701Z,5.80
2023-01-08T16:13:57.476Z,5.80
2023-01-08T16:16:24.371Z,5.80
2023-01-08T16:18:52.527Z,5.70
2023-01-08T16:21:19.442Z,5.70
2023-01-08T16:23:46.305Z,5.60
2023-01-08T16:26:15.268Z,5.70
2023-01-08T16:28:42.744Z,5.60
2023-01-08T16:31:10.423Z,5.50
2023-01-08T16:33:37.773Z,5.50
2023-01-08T16:36:09.043Z,5.40
2023-01-08T16:38:36.627Z,5.40
2023-01-08T16:41:04.243Z,5.30
2023-01-08T16:43:38.104Z,5.30
2023-01-08T16:46:13.862Z,5.20
2023-01-08T16:48:44.516Z,5.20
2023-01-08T16:51:11.641Z,5.20
2023-01-08T16:53:38.475Z,5.10
2023-01-08T16:56:06.035Z,5.10
2023-01-08T16:58:34.999Z,5.00
2023-01-08T17:01:06.677Z,5.00
2023-01-08T17:03:33.605Z,4.90
2023-01-08T17:06:05.382Z,4.90
2023-01-08T17:08:32.132Z,4.80
2023-01-08T17:10:58.913Z,4.80
2023-01-08T17:13:25.808Z,4.70
2023-01-08T17:15:53.199Z,4.70
2023-01-08T17:18:20.328Z,4.70
2023-01-08T17:20:53.837Z,4.70
2023-01-08T17:23:20.645Z,4.70
2023-01-08T17:25:47.401Z,4.70
2023-01-08T17:28:14.180Z,4.70
2023-01-08T17:30:40.992Z,4.70
2023-01-08T17:33:08.129Z,4.70
2023-01-08T17:35:34.956Z,4.70
2023-01-08T17:38:01.723Z,4.70
2023-01-08T17:40:28.542Z,4.70
2023-01-08T17:42:55.849Z,4.60
2023-01-08T17:45:22.766Z,4.70
2023-01-08T17:47:49.557Z,4.70
2023-01-08T17:50:16.693Z,4.70
2023-01-08T17:52:43.498Z,4.70
2023-01-08T17:55:10.295Z,4.70
2023-01-08T17:57:37.243Z,4.70
2023-01-08T18:00:04.578Z,4.60
2023-01-08T18:02:31.509Z,4.60
2023-01-08T18:04:58.640Z,4.60
2023-01-08T18:07:25.408Z,4.60
2023-01-08T18:09:56.946Z,4.60
2023-01-08T18:12:23.753Z,4.60
2023-01-08T18:14:50.563Z,4.60
2023-01-08T18:17:18.088Z,4.60
2023-01-08T18:19:44.978Z,4.60
2023-01-08T18:22:11.801Z,4.60
2023-01-08T18:24:38.617Z,4.60
2023-01-08T18:27:05.442Z,4.60
2023-01-08T18:29:32.208Z,4.70
2023-01-08T18:31:59.043Z,4.70
2023-01-08T18:34:26.750Z,4.70
2023-01-08T18:36:53.574Z,4.80
2023-01-08T18:39:22.376Z,4.80
2023-01-08T18:42:07.656Z,4.90
2023-01-08T18:44:34.550Z,4.90
2023-01-08T18:47:01.443Z,4.90
2023-01-08T18:49:28.228Z,4.90
2023-01-08T18:51:55.073Z,4.90
2023-01-08T18:54:21.927Z,4.80
2023-01-08T18:56:49.895Z,4.90
2023-01-08T18:59:17.410Z,4.90
2023-01-08T19:01:44.313Z,4.80
2023-01-08T19:04:18.181Z,4.80
2023-01-08T19:06:46.114Z,4.80
2023-01-08T19:09:14.260Z,4.80
2023-01-08T19:11:42.293Z,4.70
2023-01-08T19:14:11.079Z,4.70
2023-01-08T19:16:38.087Z,4.70
2023-01-08T19:19:04.946Z,4.70
2023-01-08T19:21:32.905Z,4.70
2023-01-08T19:23:59.719Z,4.70
2023-01-08T19:26:26.560Z,4.70
2023-01-08T19:28:53.358Z,4.70
2023-01-08T19:31:20.187Z,4.70
2023-01-08T19:33:47.024Z,4.70
2023-01-08T19:36:16.417Z,4.70
2023-01-08T19:38:44.538Z,4.70
2023-01-08T19:41:30.734Z,4.70
2023-01-08T19:43:58.517Z,4.70
2023-01-08T19:46:25.612Z,4.70
2023-01-08T19:48:52.956Z,4.70
2023-01-08T19:51:19.936Z,4.70
2023-01-08T19:53:46.740Z,4.70
2023-01-08T19:56:14.953Z,4.70
2023-01-08T19:58:42.334Z,4.70
2023-01-08T20:01:19.140Z,4.70
2023-01-08T20:03:46.462Z,4.70
2023-01-08T20:06:20.604Z,4.70
2023-01-08T20:08:48.996Z,4.70
2023-01-08T20:11:17.774Z,4.70
2023-01-08T20:13:44.711Z,4.60
2023-01-08T20:16:14.393Z,4.60
2023-01-08T20:18:41.277Z,4.60
2023-01-08T20:21:15.505Z,4.60
2023-01-08T20:23:43.882Z,4.60
2023-01-08T20:26:15.466Z,4.50
2023-01-08T20:28:44.002Z,4.60
2023-01-08T20:31:16.104Z,4.50
2023-01-08T20:33:43.145Z,4.60
2023-01-08T20:36:12.974Z,4.60
2023-01-08T20:38:39.854Z,4.60
2023-01-08T20:41:07.148Z,4.60
2023-01-08T20:43:35.206Z,4.60
2023-01-08T20:46:03.002Z,4.50
2023-01-08T20:48:37.078Z,4.50
2023-01-08T20:51:06.716Z,4.50
2023-01-08T20:53:36.930Z,4.50
2023-01-08T20:56:06.527Z,4.50
2023-01-08T20:58:34.180Z,4.50
2023-01-08T21:01:09.726Z,4.40
2023-01-08T21:03:36.809Z,4.50
2023-01-08T21:06:16.175Z,4.50
2023-01-08T21:08:44.531Z,4.50
2023-01-08T21:11:12.857Z,4.50
2023-01-08T21:13:40.423Z,4.50
2023-01-08T21:16:10.689Z,4.50
2023-01-08T21:18:40.543Z,4.50
2023-01-08T21:21:08.082Z,4.50
2023-01-08T21:23:34.989Z,4.50
2023-01-08T21:26:05.624Z,4.50
2023-01-08T21:28:33.062Z,4.50
2023-01-08T21:31:15.486Z,4.50
2023-01-08T21:33:46.115Z,4.50
2023-01-08T21:36:16.451Z,4.50
2023-01-08T21:38:44.025Z,4.40
2023-01-08T21:41:33.438Z,4.40
2023-01-08T21:44:19.450Z,4.40
2023-01-08T21:46:46.514Z,4.40
2023-01-08T21:49:13.482Z,4.40
2023-01-08T21:51:59.186Z,4.30
2023-01-08T21:54:25.983Z,4.40
2023-01-08T21:56:52.763Z,4.30
2023-01-08T21:59:19.645Z,4.30
2023-01-08T22:01:46.606Z,4.30
2023-01-08T22:04:13.676Z,4.30
2023-01-08T22:06:42.779Z,4.30
2023-01-08T22:09:09.875Z,4.20
2023-01-08T22:11:36.699Z,4.30
2023-01-08T22:14:03.571Z,4.30
2023-01-08T22:16:30.410Z,4.20
2023-01-08T22:18:57.335Z,4.30
2023-01-08T22:21:24.131Z,4.20
2023-01-08T22:23:51.028Z,4.20
2023-01-08T22:26:20.125Z,4.30
2023-01-08T22:28:47.100Z,4.20
2023-01-08T22:31:15.599Z,4.20
2023-01-08T22:33:42.913Z,4.20
2023-01-08T22:36:12.405Z,4.20
2023-01-08T22:38:39.357Z,4.20
2023-01-08T22:41:15.258Z,4.20
2023-01-08T22:43:42.114Z,4.10
2023-01-08T22:46:13.333Z,4.10
2023-01-08T22:48:40.481Z,4.10
2023-01-08T22:51:07.902Z,4.00
2023-01-08T22:53:35.560Z,4.00
2023-01-08T22:56:05.142Z,4.00
2023-01-08T22:58:31.977Z,4.00
2023-01-08T23:00:58.841Z,4.00
2023-01-08T23:03:27.189Z,3.90
2023-01-08T23:06:02.573Z,4.00
2023-01-08T23:08:29.441Z,3.90
2023-01-08T23:10:57.403Z,3.90
2023-01-08T23:13:24.279Z,3.90
2023-01-08T23:15:51.096Z,3.90
2023-01-08T23:18:17.926Z,3.90
2023-01-08T23:20:44.807Z,4.00
2023-01-08T23:23:11.596Z,4.00
2023-01-08T23:25:38.452Z,4.00
2023-01-08T23:28:05.358Z,4.00
2023-01-08T23:30:32.862Z,4.00
2023-01-08T23:33:00.424Z,4.00
2023-01-08T23:35:27.274Z,3.90
2023-01-08T23:37:54.043Z,4.00
2023-01-08T23:40:20.943Z,4.00
2023-01-08T23:42:47.746Z,3.90
2023-01-08T23:45:14.581Z,4.00
2023-01-08T23:47:41.382Z,3.90
2023-01-08T23:50:08.950Z,4.00
2023-01-08T23:52:35.850Z,4.00
2023-01-08T23:55:02.666Z,4.00
2023-01-08T23:57:29.448Z,4.00
2023-01-08T23:59:56.548Z,4.00
